Time;durP1;ratioP1;P1;durP2;ratioP2;P2;SDS_P1;SDS_P2;PMS_P1;PMS_P2;Temp;Humidity;BMP_temperature;BMP_pressure;BME280_temperature;BME280_humidity;BME280_pressure;Samples;Min_cycle;Max_cycle;Signal;HPM_P1;HPM_P2
2023/08/30 00:00:20;;;;;;;10.67;9.87;;;13.20;85.60;;;;;;5094803;28;20174;-88
2023/08/30 00:02:46;;;;;;;10.27;9.57;;;13.20;85.50;;;;;;5094815;28;20629;-88
2023/08/30 00:05:12;;;;;;;9.80;9.20;;;13.20;85.50;;;;;;5094720;28;20199;-89
2023/08/30 00:07:38;;;;;;;10.27;9.50;;;13.10;85.40;;;;;;5095192;28;20269;-88
2023/08/30 00:10:04;;;;;;;10.63;9.63;;;13.00;85.30;;;;;;5094563;28;20282;-88
2023/08/30 00:12:30;;;;;;;10.90;10.10;;;13.00;85.30;;;;;;5094575;28;20178;-88
2023/08/30 00:14:56;;;;;;;11.40;10.67;;;13.00;85.30;;;;;;5095925;28;20187;-88
2023/08/30 00:17:22;;;;;;;11.30;10.30;;;12.90;85.50;;;;;;5096015;28;20253;-88
2023/08/30 00:19:48;;;;;;;11.60;10.60;;;12.90;85.50;;;;;;5094775;28;20269;-88
2023/08/30 00:22:14;;;;;;;11.23;10.43;;;12.90;85.80;;;;;;5095697;28;20621;-88
2023/08/30 00:24:39;;;;;;;11.07;10.27;;;12.80;85.90;;;;;;5094373;28;20232;-88
2023/08/30 00:27:05;;;;;;;10.77;9.97;;;12.90;85.90;;;;;;5094203;28;20182;-88
2023/08/30 00:29:30;;;;;;;11.20;10.30;;;12.80;85.90;;;;;;5094154;28;20205;-88
2023/08/30 00:31:56;;;;;;;11.77;10.77;;;12.80;86.00;;;;;;5094167;28;20179;-88
2023/08/30 00:34:22;;;;;;;12.27;11.37;;;12.80;86.10;;;;;;5095593;28;20179;-88
2023/08/30 00:36:48;;;;;;;12.63;11.23;;;12.90;86.80;;;;;;5095398;28;20248;-89
2023/08/30 00:39:13;;;;;;;12.40;11.30;;;12.90;87.00;;;;;;5094137;28;20179;-89
2023/08/30 00:41:39;;;;;;;15.87;11.87;;;12.80;87.20;;;;;;5095854;28;20224;-88
2023/08/30 00:44:05;;;;;;;12.40;11.20;;;12.90;87.60;;;;;;5094018;28;20194;-88
2023/08/30 00:46:32;;;;;;;13.43;12.23;;;12.90;88.00;;;;;;5093865;28;20278;-88
2023/08/30 00:48:58;;;;;;;12.77;11.67;;;12.90;88.10;;;;;;5095112;28;20208;-89
2023/08/30 00:51:24;;;;;;;13.67;12.47;;;12.90;88.20;;;;;;5095137;28;20722;-89
2023/08/30 00:53:50;;;;;;;12.77;11.57;;;13.00;88.50;;;;;;5093838;28;20213;-89
2023/08/30 00:56:16;;;;;;;13.03;12.03;;;13.10;89.10;;;;;;5093619;28;20210;-88
2023/08/30 00:58:42;;;;;;;13.07;12.00;;;13.00;89.30;;;;;;5094050;28;20182;-88
2023/08/30 01:01:08;;;;;;;12.80;11.60;;;13.10;89.30;;;;;;5094020;28;20175;-88
2023/08/30 01:03:34;;;;;;;11.67;10.67;;;13.00;89.30;;;;;;5093555;28;20189;-89
2023/08/30 01:05:59;;;;;;;11.20;10.27;;;13.00;89.40;;;;;;5093455;28;20195;-88
2023/08/30 01:08:26;;;;;;;11.30;10.30;;;12.90;89.50;;;;;;5093347;28;20203;-88
2023/08/30 01:11:02;;;;;;;12.70;11.60;;;13.00;89.60;;;;;;5093750;28;20183;-88
2023/08/30 01:13:30;;;;;;;14.00;12.73;;;13.10;89.50;;;;;;5093420;28;20163;-89
2023/08/30 01:15:57;;;;;;;20.80;19.40;;;13.10;89.40;;;;;;5094486;28;20182;-89
2023/08/30 01:18:28;;;;;;;26.67;24.57;;;13.10;89.30;;;;;;5094634;28;20262;-89
2023/08/30 01:20:56;;;;;;;19.83;18.43;;;13.10;89.10;;;;;;5093343;28;20175;-88
2023/08/30 01:23:32;;;;;;;13.97;12.83;;;13.00;89.10;;;;;;5093209;28;20269;-89
2023/08/30 01:26:13;;;;;;;12.93;11.90;;;13.00;89.10;;;;;;5094596;28;20198;-89
2023/08/30 01:28:39;;;;;;;21.23;19.43;;;12.90;89.20;;;;;;5094456;28;20259;-88
2023/08/30 01:31:08;;;;;;;22.80;21.27;;;12.90;89.40;;;;;;5094271;28;20213;-89
2023/08/30 01:33:35;;;;;;;13.40;12.40;;;12.90;89.50;;;;;;5092972;28;20171;-89
2023/08/30 01:36:03;;;;;;;15.43;13.93;;;12.90;89.60;;;;;;5092928;28;20198;-89
2023/08/30 01:38:29;;;;;;;22.03;20.33;;;13.00;89.80;;;;;;5092917;28;20248;-89
2023/08/30 01:40:57;;;;;;;23.77;21.90;;;12.90;90.10;;;;;;5094122;28;20186;-89
2023/08/30 01:43:26;;;;;;;25.30;23.40;;;13.00;90.20;;;;;;5092835;28;20227;-89
2023/08/30 01:45:52;;;;;;;13.57;12.27;;;13.00;90.50;;;;;;5093948;28;20198;-89
2023/08/30 01:48:19;;;;;;;14.00;12.70;;;13.00;90.50;;;;;;5092677;28;20206;-89
2023/08/30 01:50:46;;;;;;;23.33;21.03;;;13.00;90.50;;;;;;5092748;28;20170;-89
2023/08/30 01:53:13;;;;;;;21.93;19.90;;;13.10;90.80;;;;;;5093927;28;20220;-89
2023/08/30 01:55:39;;;;;;;17.60;15.40;;;13.20;91.10;;;;;;5092493;28;20211;-89
2023/08/30 01:58:06;;;;;;;15.10;13.37;;;13.20;91.10;;;;;;5093871;28;20257;-89
2023/08/30 02:00:32;;;;;;;15.23;13.63;;;13.20;91.20;;;;;;5093845;28;20178;-89
2023/08/30 02:02:57;;;;;;;14.87;13.27;;;13.30;91.20;;;;;;5092469;28;20193;-89
2023/08/30 02:05:23;;;;;;;14.70;13.30;;;13.30;91.20;;;;;;5092518;28;20199;-89
2023/08/30 02:07:56;;;;;;;16.77;15.13;;;13.30;91.20;;;;;;5092377;28;20179;-89
2023/08/30 02:10:27;;;;;;;16.43;13.67;;;13.40;91.20;;;;;;5092710;28;20228;-89
2023/08/30 02:12:54;;;;;;;15.60;13.97;;;13.50;91.20;;;;;;5092696;28;20537;-89
2023/08/30 02:15:21;;;;;;;18.83;16.93;;;13.50;91.20;;;;;;5093826;28;20730;-88
2023/08/30 02:17:48;;;;;;;16.73;15.03;;;13.50;91.30;;;;;;5092466;28;20171;-89
2023/08/30 02:20:13;;;;;;;15.50;14.10;;;13.50;91.30;;;;;;5092820;28;20179;-89
2023/08/30 02:22:39;;;;;;;17.10;15.30;;;13.50;91.40;;;;;;5092494;28;20185;-89
2023/08/30 02:25:06;;;;;;;17.83;15.20;;;13.50;91.40;;;;;;5093666;28;20276;-89
2023/08/30 02:27:32;;;;;;;15.17;13.90;;;13.40;91.60;;;;;;5092385;28;20213;-89
2023/08/30 02:29:58;;;;;;;14.77;13.27;;;13.30;91.80;;;;;;5092414;28;20214;-88
2023/08/30 02:32:23;;;;;;;14.83;13.40;;;13.30;92.00;;;;;;5092311;28;20723;-88
2023/08/30 02:34:51;;;;;;;14.33;13.03;;;13.40;92.10;;;;;;5092321;28;20194;-88
2023/08/30 02:37:16;;;;;;;14.73;13.33;;;13.40;92.20;;;;;;5093430;28;20263;-88
2023/08/30 02:39:42;;;;;;;13.93;12.80;;;13.50;92.20;;;;;;5092255;28;20218;-89
2023/08/30 02:42:07;;;;;;;20.33;18.40;;;13.50;92.20;;;;;;5092404;28;20174;-89
2023/08/30 02:44:33;;;;;;;21.20;18.10;;;13.60;92.10;;;;;;5092284;28;20706;-89
2023/08/30 02:46:59;;;;;;;20.30;18.53;;;13.60;92.20;;;;;;5092491;28;20171;-88
2023/08/30 02:49:24;;;;;;;19.05;17.35;;;13.70;92.10;;;;;;5094134;28;20205;-89
2023/08/30 02:51:50;;;;;;;21.23;18.92;;;13.70;92.10;;;;;;5092309;28;20235;-88
2023/08/30 02:54:15;;;;;;;20.27;18.33;;;13.70;92.10;;;;;;5093856;28;20179;-89
2023/08/30 02:56:45;;;;;;;21.15;19.15;;;13.70;92.10;;;;;;5092186;28;20222;-89
2023/08/30 02:59:11;;;;;;;21.63;19.73;;;13.80;92.10;;;;;;5092289;28;20174;-89
2023/08/30 03:01:37;;;;;;;22.10;20.02;;;13.70;92.10;;;;;;5091954;28;20232;-89
2023/08/30 03:04:05;;;;;;;22.07;20.03;;;13.70;92.10;;;;;;5092895;28;20622;-89
2023/08/30 03:06:31;;;;;;;23.43;21.10;;;13.70;92.20;;;;;;5093162;28;20194;-89
2023/08/30 03:08:57;;;;;;;22.88;20.08;;;13.80;92.20;;;;;;5091864;28;20210;-89
2023/08/30 03:11:22;;;;;;;23.02;20.77;;;13.80;92.20;;;;;;5093363;28;20171;-89
2023/08/30 03:13:48;;;;;;;22.73;20.33;;;13.80;92.20;;;;;;5093310;28;20171;-89
2023/08/30 03:16:15;;;;;;;21.77;19.77;;;13.80;92.20;;;;;;5092220;28;20201;-89
2023/08/30 03:18:41;;;;;;;22.17;19.97;;;13.70;92.20;;;;;;5093246;28;20187;-89
2023/08/30 03:21:07;;;;;;;20.77;18.77;;;13.70;92.20;;;;;;5091935;28;20706;-89
2023/08/30 03:23:35;;;;;;;19.58;17.67;;;13.70;92.20;;;;;;5094746;28;20274;-89
2023/08/30 03:26:10;;;;;;;20.25;18.25;;;13.70;92.30;;;;;;5095676;28;20285;-89
2023/08/30 03:28:36;;;;;;;19.70;17.73;;;13.70;92.30;;;;;;5095571;28;20228;-89
2023/08/30 03:31:02;;;;;;;21.33;19.23;;;13.70;92.30;;;;;;5095850;28;20188;-89
2023/08/30 03:33:27;;;;;;;23.88;19.73;;;13.70;92.30;;;;;;5095563;28;20175;-89
2023/08/30 03:35:53;;;;;;;22.70;20.63;;;13.80;92.30;;;;;;5095517;28;20195;-88
2023/08/30 03:38:19;;;;;;;22.88;20.67;;;13.80;92.30;;;;;;5095481;28;20190;-89
2023/08/30 03:40:44;;;;;;;22.60;20.40;;;13.80;92.20;;;;;;5096290;28;20175;-89
2023/08/30 03:43:10;;;;;;;24.77;22.27;;;13.80;92.20;;;;;;5095382;28;20273;-89
2023/08/30 03:45:38;;;;;;;22.60;20.50;;;13.70;92.10;;;;;;5096432;28;20207;-89
2023/08/30 03:48:04;;;;;;;24.50;20.95;;;13.80;92.20;;;;;;5095312;28;20209;-89
2023/08/30 03:50:30;;;;;;;23.23;20.87;;;13.80;92.20;;;;;;5096403;28;20167;-89
2023/08/30 03:52:56;;;;;;;24.25;21.42;;;13.80;92.20;;;;;;5095372;28;20220;-88
2023/08/30 03:55:22;;;;;;;21.88;19.42;;;13.70;92.00;;;;;;5096150;28;20203;-89
2023/08/30 03:57:48;;;;;;;22.30;20.25;;;13.80;92.10;;;;;;5095146;28;20705;-88
2023/08/30 04:00:14;;;;;;;22.43;20.20;;;13.70;92.00;;;;;;5095228;28;20183;-88
2023/08/30 04:02:39;;;;;;;23.87;20.77;;;13.70;92.10;;;;;;5096090;28;20185;-86
2023/08/30 04:05:08;;;;;;;23.80;21.03;;;13.70;92.10;;;;;;5096098;28;20696;-89
2023/08/30 04:07:35;;;;;;;23.57;21.27;;;13.80;92.10;;;;;;5095086;28;20171;-89
2023/08/30 04:10:02;;;;;;;24.60;22.13;;;13.80;92.10;;;;;;5094823;28;20209;-88
2023/08/30 04:12:28;;;;;;;23.90;21.60;;;13.80;92.00;;;;;;5094896;28;20194;-88
2023/08/30 04:14:54;;;;;;;23.33;21.03;;;13.90;92.00;;;;;;5094819;28;20681;-89
2023/08/30 04:17:19;;;;;;;22.90;20.58;;;13.80;91.90;;;;;;5096117;28;20170;-89
2023/08/30 04:19:45;;;;;;;23.30;20.90;;;13.80;91.90;;;;;;5094875;28;20179;-89
2023/08/30 04:22:10;;;;;;;23.02;20.73;;;13.80;92.00;;;;;;5095911;28;20175;-89
2023/08/30 04:24:36;;;;;;;23.58;21.13;;;13.80;91.90;;;;;;5094627;28;20248;-89
2023/08/30 04:27:01;;;;;;;21.63;19.67;;;13.90;92.00;;;;;;5095784;28;20237;-88
2023/08/30 04:29:27;;;;;;;22.33;20.13;;;13.90;91.90;;;;;;5095657;28;20251;-89
2023/08/30 04:31:54;;;;;;;22.73;20.35;;;13.90;91.90;;;;;;5096345;28;20251;-88
2023/08/30 04:34:19;;;;;;;21.77;19.67;;;14.00;91.90;;;;;;5094377;28;20170;-88
2023/08/30 04:36:45;;;;;;;22.55;20.10;;;14.00;91.80;;;;;;5094393;28;20191;-88
2023/08/30 04:39:12;;;;;;;22.85;20.63;;;14.00;91.80;;;;;;5095529;28;20192;-88
2023/08/30 04:41:37;;;;;;;21.48;19.48;;;14.00;91.80;;;;;;5095524;28;20166;-89
2023/08/30 04:44:03;;;;;;;21.35;19.35;;;13.90;91.90;;;;;;5095582;28;20547;-88
2023/08/30 04:46:29;;;;;;;20.85;18.83;;;13.90;91.90;;;;;;5094392;28;20195;-89
2023/08/30 04:48:54;;;;;;;21.27;19.05;;;13.90;92.00;;;;;;5095264;28;20238;-88
2023/08/30 04:51:20;;;;;;;21.77;19.50;;;14.00;92.10;;;;;;5095331;28;20202;-89
2023/08/30 04:53:45;;;;;;;21.10;19.10;;;14.00;92.20;;;;;;5094344;28;20631;-89
2023/08/30 04:56:12;;;;;;;19.73;17.90;;;14.00;92.10;;;;;;5093869;28;20244;-88
2023/08/30 04:58:39;;;;;;;21.52;19.35;;;14.00;92.20;;;;;;5094787;28;20311;-89
2023/08/30 05:01:04;;;;;;;20.38;18.48;;;13.90;92.20;;;;;;5093837;28;20186;-89
2023/08/30 05:03:30;;;;;;;20.33;18.37;;;13.90;92.20;;;;;;5095220;28;20171;-88
2023/08/30 05:05:55;;;;;;;20.07;16.87;;;13.90;92.20;;;;;;5094948;28;20194;-88
2023/08/30 05:08:21;;;;;;;18.60;16.83;;;13.90;92.30;;;;;;5093766;28;20700;-88
2023/08/30 05:10:47;;;;;;;18.50;16.30;;;13.90;92.20;;;;;;5095024;28;20170;-88
2023/08/30 05:13:14;;;;;;;17.73;15.83;;;13.90;92.20;;;;;;5095473;28;20583;-88
2023/08/30 05:15:39;;;;;;;19.80;15.47;;;13.90;92.10;;;;;;5093584;28;20199;-89
2023/08/30 05:18:05;;;;;;;16.23;14.67;;;13.90;92.10;;;;;;5093544;28;20531;-88
2023/08/30 05:20:30;;;;;;;16.90;15.30;;;13.90;91.90;;;;;;5093580;28;20170;-89
2023/08/30 05:22:56;;;;;;;18.67;14.50;;;13.90;91.90;;;;;;5094941;28;20227;-88
2023/08/30 05:25:21;;;;;;;15.93;14.43;;;14.00;91.90;;;;;;5094764;28;20202;-88
2023/08/30 05:27:48;;;;;;;16.20;14.80;;;14.00;91.90;;;;;;5094225;28;20614;-89
2023/08/30 05:30:13;;;;;;;16.10;14.47;;;14.10;91.90;;;;;;5094715;28;20177;-88
2023/08/30 05:32:39;;;;;;;16.27;14.43;;;14.10;91.80;;;;;;5094764;28;20167;-89
2023/08/30 05:35:05;;;;;;;16.03;13.60;;;14.10;91.70;;;;;;5094364;28;20197;-89
2023/08/30 05:37:30;;;;;;;15.67;14.27;;;14.00;91.60;;;;;;5093313;28;20178;-89
2023/08/30 05:39:57;;;;;;;15.73;14.17;;;14.00;91.50;;;;;;5093166;28;20186;-89
2023/08/30 05:42:23;;;;;;;14.90;13.60;;;14.00;91.40;;;;;;5093039;28;20243;-89
2023/08/30 05:44:48;;;;;;;15.70;14.13;;;14.10;91.40;;;;;;5094072;28;20666;-88
2023/08/30 05:47:16;;;;;;;15.10;13.73;;;14.10;91.30;;;;;;5092953;28;20216;-89
2023/08/30 05:49:42;;;;;;;16.02;14.63;;;14.20;91.30;;;;;;5093151;28;20214;-88
2023/08/30 05:52:08;;;;;;;15.70;14.30;;;14.20;91.30;;;;;;5093161;28;20174;-89
2023/08/30 05:54:33;;;;;;;16.57;15.07;;;14.30;91.20;;;;;;5092931;28;20205;-89
2023/08/30 05:56:59;;;;;;;16.17;14.63;;;14.30;91.20;;;;;;5094075;28;20187;-89
2023/08/30 05:59:25;;;;;;;16.87;15.27;;;14.30;91.10;;;;;;5094321;28;20304;-89
2023/08/30 06:01:50;;;;;;;16.60;14.90;;;14.30;91.10;;;;;;5093011;28;20205;-89
2023/08/30 06:04:16;;;;;;;16.13;14.00;;;14.30;91.10;;;;;;5092831;28;20257;-88
2023/08/30 06:06:41;;;;;;;18.93;17.27;;;14.30;91.20;;;;;;5094004;28;20248;-89
2023/08/30 06:09:07;;;;;;;19.60;17.90;;;14.40;91.20;;;;;;5092638;28;20209;-88
2023/08/30 06:11:33;;;;;;;19.30;17.60;;;14.50;91.30;;;;;;5092776;28;20181;-88
2023/08/30 06:13:59;;;;;;;21.88;18.40;;;14.50;91.20;;;;;;5093989;28;20630;-89
2023/08/30 06:16:25;;;;;;;20.63;18.83;;;14.50;91.10;;;;;;5093667;28;20240;-89
2023/08/30 06:18:50;;;;;;;20.65;18.63;;;14.50;91.10;;;;;;5092707;28;20186;-88
2023/08/30 06:21:16;;;;;;;24.42;16.05;;;14.50;91.00;;;;;;5092666;28;20178;-88
2023/08/30 06:23:42;;;;;;;18.57;16.53;;;14.50;91.00;;;;;;5092462;28;20182;-88
2023/08/30 06:26:07;;;;;;;18.05;16.27;;;14.50;90.90;;;;;;5092389;28;20212;-88
2023/08/30 06:28:33;;;;;;;16.85;15.20;;;14.60;90.70;;;;;;5093815;28;20228;-88
2023/08/30 06:30:58;;;;;;;17.48;15.85;;;14.70;90.70;;;;;;5093777;28;20167;-88
2023/08/30 06:33:24;;;;;;;18.50;16.42;;;14.70;90.70;;;;;;5093476;28;20186;-88
2023/08/30 06:35:53;;;;;;;20.35;15.20;;;14.70;90.50;;;;;;5093468;28;20190;-88
2023/08/30 06:38:19;;;;;;;22.23;16.47;;;14.70;90.40;;;;;;5092235;28;20179;-89
2023/08/30 06:40:49;;;;;;;18.35;16.52;;;14.80;90.40;;;;;;5093545;28;20220;-89
2023/08/30 06:43:14;;;;;;;18.25;16.75;;;14.80;90.40;;;;;;5092162;28;20178;-89
2023/08/30 06:45:44;;;;;;;17.40;15.88;;;14.80;90.40;;;;;;5092055;28;20202;-89
2023/08/30 06:48:09;;;;;;;18.95;16.27;;;14.90;90.40;;;;;;5093340;28;20213;-89
2023/08/30 06:50:35;;;;;;;18.75;16.77;;;14.80;90.30;;;;;;5092128;28;20171;-89
2023/08/30 06:53:02;;;;;;;19.92;18.00;;;14.80;90.30;;;;;;5093455;28;20166;-89
2023/08/30 06:55:27;;;;;;;18.80;17.00;;;14.80;90.10;;;;;;5091895;28;20210;-88
2023/08/30 06:57:53;;;;;;;19.48;17.67;;;14.70;90.20;;;;;;5094175;28;20232;-88
2023/08/30 07:00:19;;;;;;;19.90;18.07;;;14.70;90.10;;;;;;5096233;28;20166;-88
2023/08/30 07:02:45;;;;;;;20.90;18.80;;;14.80;90.00;;;;;;5096685;28;20192;-88
2023/08/30 07:05:14;;;;;;;20.43;18.47;;;14.80;90.10;;;;;;5096601;28;20557;-88
2023/08/30 07:07:40;;;;;;;21.17;18.87;;;14.90;90.20;;;;;;5096003;28;20178;-88
2023/08/30 07:10:06;;;;;;;20.92;18.92;;;14.90;89.80;;;;;;5097468;28;20205;-88
2023/08/30 07:12:32;;;;;;;21.40;19.40;;;14.90;89.90;;;;;;5096135;28;20182;-88
2023/08/30 07:14:57;;;;;;;21.17;19.15;;;15.00;90.10;;;;;;5097427;28;20324;-88
2023/08/30 07:17:23;;;;;;;23.02;19.08;;;15.00;89.90;;;;;;5095932;28;20650;-88
2023/08/30 07:19:49;;;;;;;23.55;19.38;;;15.20;90.20;;;;;;5096035;28;20171;-89
2023/08/30 07:22:16;;;;;;;22.00;19.83;;;15.20;90.00;;;;;;5096664;28;20174;-88
2023/08/30 07:24:43;;;;;;;24.30;21.70;;;15.30;89.80;;;;;;5095950;28;20198;-88
2023/08/30 07:27:08;;;;;;;23.67;21.17;;;15.20;89.40;;;;;;5095694;28;20650;-88
2023/08/30 07:29:34;;;;;;;25.25;19.75;;;15.30;89.30;;;;;;5097017;28;20233;-89
2023/08/30 07:31:59;;;;;;;23.58;20.42;;;15.30;89.00;;;;;;5095733;28;20183;-89
2023/08/30 07:34:25;;;;;;;23.95;21.08;;;15.40;89.10;;;;;;5096822;28;20177;-88
2023/08/30 07:36:53;;;;;;;24.38;21.50;;;15.50;89.20;;;;;;5096956;28;20179;-89
2023/08/30 07:39:19;;;;;;;23.08;20.65;;;15.60;89.10;;;;;;5095469;28;20257;-89
2023/08/30 07:41:44;;;;;;;22.83;20.23;;;15.60;89.00;;;;;;5096798;28;20652;-89
2023/08/30 07:44:10;;;;;;;24.33;21.70;;;15.70;89.10;;;;;;5095328;28;20277;-89
2023/08/30 07:46:35;;;;;;;25.95;20.60;;;15.80;88.90;;;;;;5095471;28;20194;-90
2023/08/30 07:49:04;;;;;;;23.83;21.52;;;15.90;88.80;;;;;;5095853;28;20207;-89
2023/08/30 07:51:29;;;;;;;28.85;26.15;;;15.90;88.40;;;;;;5095439;28;20661;-88
2023/08/30 07:53:55;;;;;;;28.48;25.77;;;16.10;88.70;;;;;;5096424;28;20175;-88
2023/08/30 07:56:20;;;;;;;28.92;26.15;;;16.00;88.00;;;;;;5096608;28;20218;-89
2023/08/30 07:58:46;;;;;;;27.40;24.83;;;16.10;88.10;;;;;;5095410;28;20178;-88
2023/08/30 08:01:11;;;;;;;28.40;25.63;;;16.20;87.40;;;;;;5096679;28;20590;-88
2023/08/30 08:03:37;;;;;;;22.50;20.15;;;16.10;87.20;;;;;;5095301;28;20179;-88
2023/08/30 08:06:03;;;;;;;23.52;21.05;;;16.30;87.50;;;;;;5094885;28;20198;-88
2023/08/30 08:08:28;;;;;;;25.42;20.38;;;16.30;87.20;;;;;;5096196;28;20186;-88
2023/08/30 08:10:54;;;;;;;28.65;26.05;;;16.40;86.90;;;;;;5095944;28;20167;-89
2023/08/30 08:13:20;;;;;;;28.42;25.80;;;16.30;86.40;;;;;;5095902;28;20166;-90
2023/08/30 08:15:45;;;;;;;28.83;26.35;;;16.40;86.40;;;;;;5094522;28;20282;-89
2023/08/30 08:18:11;;;;;;;22.88;20.38;;;16.60;86.50;;;;;;5094581;28;20178;-89
2023/08/30 08:20:37;;;;;;;21.63;19.42;;;16.70;86.40;;;;;;5094581;28;20206;-89
2023/08/30 08:23:03;;;;;;;28.75;26.10;;;16.70;85.80;;;;;;5094489;28;20265;-89
2023/08/30 08:25:28;;;;;;;30.27;27.45;;;16.70;85.40;;;;;;5095726;28;20194;-89
2023/08/30 08:27:54;;;;;;;31.08;28.20;;;16.90;85.90;;;;;;5094403;28;20525;-89
2023/08/30 08:30:23;;;;;;;22.65;20.48;;;16.90;85.70;;;;;;5095398;28;20171;-88
2023/08/30 08:32:48;;;;;;;26.27;22.88;;;16.90;85.50;;;;;;5095538;28;20219;-89
2023/08/30 08:35:14;;;;;;;30.17;27.45;;;16.90;85.30;;;;;;5095375;28;20324;-89
2023/08/30 08:37:40;;;;;;;29.80;26.90;;;16.90;85.20;;;;;;5094343;28;20196;-89
2023/08/30 08:40:08;;;;;;;22.90;20.48;;;17.00;85.00;;;;;;5095396;28;20175;-88
2023/08/30 08:42:35;;;;;;;22.95;20.73;;;17.20;84.80;;;;;;5095102;28;20174;-89
2023/08/30 08:45:02;;;;;;;23.05;20.95;;;17.20;84.40;;;;;;5095237;28;20565;-89
2023/08/30 08:47:30;;;;;;;28.85;26.38;;;17.20;84.40;;;;;;5095504;28;20175;-89
2023/08/30 08:49:56;;;;;;;30.73;28.23;;;17.20;84.30;;;;;;5095087;28;20248;-89
2023/08/30 08:52:23;;;;;;;21.63;19.65;;;17.20;82.80;;;;;;5094305;28;20183;-89
2023/08/30 08:54:49;;;;;;;20.77;18.95;;;17.40;83.70;;;;;;5094201;28;20201;-90
2023/08/30 08:57:15;;;;;;;22.25;20.23;;;17.50;83.50;;;;;;5094178;28;20186;-89
2023/08/30 08:59:41;;;;;;;22.70;20.63;;;17.60;83.50;;;;;;5094211;28;20235;-90
2023/08/30 09:02:08;;;;;;;22.83;20.63;;;17.50;82.60;;;;;;5093860;28;20255;-90
2023/08/30 09:04:33;;;;;;;24.08;21.80;;;17.50;82.50;;;;;;5093578;28;20179;-89
2023/08/30 09:07:00;;;;;;;22.95;20.85;;;17.50;81.40;;;;;;5094200;28;20171;-87
2023/08/30 09:09:26;;;;;;;21.63;19.63;;;17.60;81.60;;;;;;5096919;28;20186;-88
2023/08/30 09:11:51;;;;;;;22.10;20.10;;;17.80;81.80;;;;;;5095426;28;20174;-88
2023/08/30 09:14:18;;;;;;;22.38;20.30;;;17.70;80.60;;;;;;5095717;28;20257;-88
2023/08/30 09:16:57;;;;;;;21.38;19.38;;;17.70;80.50;;;;;;5096009;28;20191;-87
2023/08/30 09:19:23;;;;;;;22.30;20.15;;;17.90;80.60;;;;;;5093180;28;20228;-87
2023/08/30 09:21:55;;;;;;;21.90;20.10;;;17.90;79.80;;;;;;5093191;28;20178;-87
2023/08/30 09:24:22;;;;;;;21.67;19.83;;;17.80;78.70;;;;;;5094507;28;20171;-86
2023/08/30 09:26:49;;;;;;;23.23;21.23;;;17.70;76.60;;;;;;5094567;28;20175;-87
2023/08/30 09:29:17;;;;;;;23.00;20.77;;;17.40;75.50;;;;;;5092959;28;20677;-87
2023/08/30 09:31:42;;;;;;;22.17;20.05;;;17.40;74.70;;;;;;5094570;28;20200;-87
2023/08/30 09:34:08;;;;;;;22.33;20.20;;;17.60;76.50;;;;;;5093305;28;20174;-87
2023/08/30 09:36:40;;;;;;;24.20;21.65;;;17.70;75.10;;;;;;5094382;28;20265;-87
2023/08/30 09:39:11;;;;;;;22.08;20.17;;;17.70;73.60;;;;;;5094431;28;20703;-87
2023/08/30 09:41:41;;;;;;;22.15;20.35;;;17.80;74.20;;;;;;5094345;28;20173;-87
2023/08/30 09:44:09;;;;;;;22.75;21.08;;;17.90;74.00;;;;;;5092747;28;20267;-86
2023/08/30 09:46:50;;;;;;;22.80;20.92;;;17.80;73.10;;;;;;5092788;28;20210;-87
2023/08/30 09:49:17;;;;;;;20.65;18.75;;;17.90;74.30;;;;;;5094020;28;20186;-87
2023/08/30 09:51:46;;;;;;;22.52;20.83;;;18.10;73.40;;;;;;5092728;28;20175;-87
2023/08/30 09:54:24;;;;;;;23.20;21.27;;;18.00;71.60;;;;;;5092693;28;20171;-87
2023/08/30 09:56:53;;;;;;;20.70;19.10;;;18.10;72.60;;;;;;5092529;28;20213;-87
2023/08/30 09:59:19;;;;;;;21.70;19.92;;;18.20;73.10;;;;;;5094151;28;20244;-87
2023/08/30 10:01:48;;;;;;;21.92;20.20;;;18.20;72.00;;;;;;5093814;28;20167;-88
2023/08/30 10:04:15;;;;;;;22.88;21.08;;;18.30;72.40;;;;;;5092779;28;20592;-88
2023/08/30 10:06:40;;;;;;;22.60;20.58;;;18.20;70.30;;;;;;5093631;28;20678;-88
2023/08/30 10:09:08;;;;;;;21.25;19.35;;;18.00;72.30;;;;;;5093590;28;20208;-87
2023/08/30 10:11:36;;;;;;;23.23;21.02;;;18.20;71.70;;;;;;5092404;28;20170;-87
2023/08/30 10:14:05;;;;;;;23.90;21.52;;;18.30;70.40;;;;;;5093616;28;20167;-87
2023/08/30 10:16:45;;;;;;;24.15;21.95;;;18.20;69.60;;;;;;5092165;28;20248;-87
2023/08/30 10:19:23;;;;;;;23.48;21.67;;;18.40;71.50;;;;;;5093544;28;20645;-87
2023/08/30 10:22:04;;;;;;;23.55;21.63;;;18.40;69.30;;;;;;5092364;28;20718;-88
2023/08/30 10:24:38;;;;;;;25.45;22.20;;;18.60;70.20;;;;;;5092235;28;20202;-88
2023/08/30 10:27:07;;;;;;;23.63;21.75;;;18.60;69.60;;;;;;5093195;28;20185;-88
2023/08/30 10:29:35;;;;;;;25.27;22.98;;;18.70;69.60;;;;;;5093302;28;20277;-87
2023/08/30 10:32:04;;;;;;;22.90;21.08;;;18.90;68.80;;;;;;5093291;28;20170;-88
2023/08/30 10:34:33;;;;;;;23.35;21.52;;;19.00;68.10;;;;;;5092113;28;20202;-87
2023/08/30 10:37:03;;;;;;;25.05;22.98;;;18.90;67.90;;;;;;5092104;28;20202;-88
2023/08/30 10:39:39;;;;;;;23.45;21.55;;;18.90;67.70;;;;;;5092156;28;20252;-88
2023/08/30 10:42:13;;;;;;;24.77;22.52;;;19.10;68.90;;;;;;5092022;28;20174;-88
2023/08/30 10:44:56;;;;;;;22.75;20.85;;;19.00;67.50;;;;;;5093150;28;20572;-88
2023/08/30 10:47:29;;;;;;;22.48;20.60;;;18.80;68.40;;;;;;5093258;28;20194;-87
2023/08/30 10:49:56;;;;;;;26.65;24.25;;;19.20;67.20;;;;;;5091942;28;20255;-88
2023/08/30 10:52:22;;;;;;;25.15;23.00;;;19.40;66.10;;;;;;5093142;28;20174;-88
2023/08/30 10:54:48;;;;;;;22.88;21.05;;;19.20;67.20;;;;;;5093393;28;20191;-88
2023/08/30 10:57:15;;;;;;;25.05;22.98;;;19.30;68.10;;;;;;5092120;28;20536;-88
2023/08/30 11:00:04;;;;;;;27.48;25.10;;;19.20;65.90;;;;;;5093136;28;20175;-88
2023/08/30 11:02:30;;;;;;;23.90;21.75;;;19.10;66.20;;;;;;5092679;28;20215;-87
2023/08/30 11:04:58;;;;;;;26.20;23.33;;;19.40;67.60;;;;;;5093523;28;20194;-89
2023/08/30 11:07:27;;;;;;;26.25;24.05;;;19.60;66.30;;;;;;5091752;28;20179;-88
2023/08/30 11:09:53;;;;;;;26.75;24.55;;;19.50;66.00;;;;;;5092899;28;20206;-88
2023/08/30 11:12:22;;;;;;;26.35;23.95;;;19.10;66.30;;;;;;5092999;28;20692;-88
2023/08/30 11:14:48;;;;;;;26.92;24.63;;;18.90;67.50;;;;;;5093452;28;20183;-88
2023/08/30 11:17:16;;;;;;;27.25;24.83;;;19.00;68.40;;;;;;5091979;28;20224;-88
2023/08/30 11:19:41;;;;;;;28.98;26.40;;;19.10;67.00;;;;;;5093122;28;20259;-89
2023/08/30 11:22:07;;;;;;;27.48;25.10;;;19.20;67.50;;;;;;5091781;28;20628;-89
2023/08/30 11:24:34;;;;;;;27.88;25.30;;;19.30;67.70;;;;;;5091966;28;20179;-87
2023/08/30 11:27:00;;;;;;;26.20;24.00;;;19.10;67.50;;;;;;5091583;28;20561;-88
2023/08/30 11:29:27;;;;;;;25.83;23.52;;;19.30;67.70;;;;;;5093014;28;20202;-87
2023/08/30 11:31:52;;;;;;;26.33;24.10;;;19.30;67.80;;;;;;5092818;28;20167;-87
2023/08/30 11:34:22;;;;;;;26.67;24.48;;;19.30;66.80;;;;;;5093012;28;20186;-87
2023/08/30 11:36:47;;;;;;;27.58;25.10;;;19.20;68.10;;;;;;5092804;28;20544;-87
2023/08/30 11:39:14;;;;;;;26.10;23.95;;;19.10;67.60;;;;;;5091538;28;20174;-88
2023/08/30 11:41:40;;;;;;;27.60;25.25;;;19.30;68.70;;;;;;5092400;28;20194;-88
2023/08/30 11:44:05;;;;;;;25.73;23.42;;;19.30;67.00;;;;;;5093769;28;20205;-88
2023/08/30 11:46:32;;;;;;;27.50;25.10;;;19.50;65.10;;;;;;5096335;28;20191;-88
2023/08/30 11:48:57;;;;;;;27.25;24.95;;;19.70;64.50;;;;;;5095171;28;20202;-88
2023/08/30 11:51:23;;;;;;;27.48;25.23;;;19.70;62.30;;;;;;5095014;28;20768;-88
2023/08/30 11:53:49;;;;;;;26.13;23.92;;;19.70;61.90;;;;;;5095093;28;20254;-87
2023/08/30 11:56:16;;;;;;;26.25;24.10;;;19.50;61.40;;;;;;5096130;28;20557;-87
2023/08/30 11:58:43;;;;;;;27.05;24.77;;;19.30;62.50;;;;;;5094961;28;20650;-87
2023/08/30 12:01:11;;;;;;;28.25;25.88;;;19.20;63.50;;;;;;5096483;28;20208;-87
2023/08/30 12:03:36;;;;;;;28.40;25.90;;;19.20;63.90;;;;;;5094886;28;20265;-87
2023/08/30 12:06:02;;;;;;;27.30;25.10;;;19.50;62.70;;;;;;5094682;28;20285;-88
2023/08/30 12:08:31;;;;;;;37.05;34.10;;;19.80;63.40;;;;;;5094741;28;20198;-87
2023/08/30 12:10:57;;;;;;;38.22;35.33;;;19.70;62.90;;;;;;5096141;28;20634;-87
2023/08/30 12:13:26;;;;;;;38.85;35.92;;;20.00;61.50;;;;;;5096023;28;20572;-87
2023/08/30 12:15:53;;;;;;;27.90;25.45;;;19.90;63.50;;;;;;5094680;28;20201;-87
2023/08/30 12:18:29;;;;;;;28.52;26.23;;;20.30;63.40;;;;;;5095791;28;20546;-88
2023/08/30 12:21:02;;;;;;;28.63;26.13;;;20.30;62.20;;;;;;5094624;28;20174;-87
2023/08/30 12:23:30;;;;;;;35.95;33.15;;;20.50;62.10;;;;;;5095831;28;20238;-88
2023/08/30 12:26:09;;;;;;;39.95;36.65;;;20.50;62.00;;;;;;5095603;28;20214;-87